Time;durP1;ratioP1;P1;durP2;ratioP2;P2;SDS_P1;SDS_P2;PMS_P1;PMS_P2;Temp;Humidity;BMP_temperature;BMP_pressure;BME280_temperature;BME280_humidity;BME280_pressure;Samples;Min_cycle;Max_cycle;Signal;HPM_P1;HPM_P2
2021/10/10 00:02:03;;;;;;;26.13;22.77;;;6.60;99.90;;;;;;5105325;28;20051;-61
2021/10/10 00:04:31;;;;;;;29.08;23.02;;;6.60;99.90;;;;;;5089119;28;20047;-61
2021/10/10 00:06:57;;;;;;;27.45;22.05;;;6.60;99.90;;;;;;5102748;28;20055;-60
2021/10/10 00:09:24;;;;;;;26.63;22.30;;;6.60;99.90;;;;;;5104134;28;20048;-61
2021/10/10 00:11:50;;;;;;;25.35;21.83;;;6.50;99.90;;;;;;5103406;28;20055;-61
2021/10/10 00:14:16;;;;;;;29.13;21.85;;;6.50;99.90;;;;;;5105178;28;20043;-61
2021/10/10 00:16:46;;;;;;;23.88;21.10;;;6.40;99.90;;;;;;5088849;28;20126;-60
2021/10/10 00:19:17;;;;;;;24.50;19.23;;;6.50;99.90;;;;;;5103177;28;20047;-61
2021/10/10 00:21:46;;;;;;;23.13;19.98;;;6.40;99.90;;;;;;5108049;28;20043;-61
2021/10/10 00:24:17;;;;;;;25.83;20.23;;;6.40;99.90;;;;;;5107077;28;20055;-60
2021/10/10 00:27:08;;;;;;;23.92;20.95;;;6.40;99.90;;;;;;5101752;28;20171;-57
2021/10/10 00:29:37;;;;;;;28.80;21.42;;;6.30;99.90;;;;;;5078564;28;20124;-60
2021/10/10 00:32:04;;;;;;;25.50;20.52;;;6.30;99.90;;;;;;5100123;28;20052;-61
2021/10/10 00:34:30;;;;;;;25.75;19.95;;;6.30;99.90;;;;;;5087848;28;20082;-60
2021/10/10 00:36:56;;;;;;;21.95;19.42;;;6.20;99.90;;;;;;5106426;28;20090;-60
2021/10/10 00:39:22;;;;;;;24.83;20.05;;;6.20;99.90;;;;;;5104608;28;20043;-58
2021/10/10 00:41:51;;;;;;;24.92;19.98;;;6.10;99.90;;;;;;5106244;28;20082;-59
2021/10/10 00:44:18;;;;;;;26.02;20.50;;;6.10;99.90;;;;;;5104270;28;20051;-63
2021/10/10 00:46:47;;;;;;;24.98;19.88;;;6.10;99.90;;;;;;5106147;28;20052;-59
2021/10/10 00:49:13;;;;;;;23.95;18.48;;;6.10;99.90;;;;;;5102052;28;20065;-61
2021/10/10 00:51:41;;;;;;;23.88;19.52;;;6.00;99.90;;;;;;5106057;28;20074;-61
2021/10/10 00:54:09;;;;;;;25.63;21.10;;;6.00;99.90;;;;;;5101625;28;20054;-59
2021/10/10 00:56:36;;;;;;;26.27;19.90;;;6.00;99.90;;;;;;5106089;28;20048;-60
2021/10/10 00:59:05;;;;;;;26.27;20.30;;;6.00;99.90;;;;;;5105321;28;20419;-60
2021/10/10 01:01:32;;;;;;;23.70;19.38;;;6.00;99.90;;;;;;5106485;28;20043;-59
2021/10/10 01:03:59;;;;;;;22.50;17.75;;;6.00;99.90;;;;;;5103312;28;20059;-60
2021/10/10 01:06:27;;;;;;;24.70;19.45;;;5.90;99.90;;;;;;5099223;28;20515;-60
2021/10/10 01:08:53;;;;;;;23.77;18.55;;;5.90;99.90;;;;;;5086694;28;20062;-61
2021/10/10 01:11:20;;;;;;;21.50;19.23;;;5.90;99.90;;;;;;5103747;28;20126;-60
2021/10/10 01:13:48;;;;;;;24.83;18.92;;;5.80;99.90;;;;;;5105843;28;20096;-60
2021/10/10 01:16:17;;;;;;;24.73;19.73;;;5.80;99.90;;;;;;5106266;28;20069;-62
2021/10/10 01:18:45;;;;;;;21.58;18.08;;;5.80;99.90;;;;;;5103678;28;20381;-61
2021/10/10 01:21:11;;;;;;;22.77;19.13;;;5.80;99.90;;;;;;5103348;28;20139;-60
2021/10/10 01:23:38;;;;;;;28.83;20.55;;;5.80;99.90;;;;;;5108835;28;20119;-60
2021/10/10 01:26:04;;;;;;;25.50;20.13;;;5.70;99.90;;;;;;5109058;28;20071;-59
2021/10/10 01:28:33;;;;;;;24.63;19.92;;;5.70;99.90;;;;;;5108740;28;20488;-60
2021/10/10 01:30:59;;;;;;;20.58;18.05;;;5.60;99.90;;;;;;5106739;28;20060;-59
2021/10/10 01:33:26;;;;;;;26.40;22.02;;;5.60;99.90;;;;;;5100771;28;20079;-60
2021/10/10 01:35:52;;;;;;;26.15;22.35;;;5.60;99.90;;;;;;5085094;28;20511;-59
2021/10/10 01:38:21;;;;;;;25.85;22.25;;;5.60;99.90;;;;;;5105958;28;20051;-61
2021/10/10 01:40:47;;;;;;;26.13;21.52;;;5.60;99.90;;;;;;5105760;28;20055;-60
2021/10/10 01:43:14;;;;;;;25.15;20.65;;;5.60;99.90;;;;;;5103449;28;20519;-61
2021/10/10 01:45:41;;;;;;;24.95;20.63;;;5.60;99.90;;;;;;5099732;28;20051;-60
2021/10/10 01:48:11;;;;;;;24.98;21.13;;;5.60;99.90;;;;;;5086694;28;20510;-60
2021/10/10 01:50:41;;;;;;;25.67;20.17;;;5.50;99.90;;;;;;5085838;28;20104;-61
2021/10/10 01:53:10;;;;;;;22.02;18.42;;;5.50;99.90;;;;;;5080042;28;20419;-61
2021/10/10 01:55:36;;;;;;;25.10;21.05;;;5.40;99.90;;;;;;5104550;28;20416;-60
2021/10/10 01:58:02;;;;;;;25.35;21.48;;;5.40;99.90;;;;;;5087071;28;20125;-61
2021/10/10 02:00:34;;;;;;;26.08;20.60;;;5.40;99.90;;;;;;5103219;28;20514;-59
2021/10/10 02:03:00;;;;;;;27.17;21.02;;;5.40;99.90;;;;;;5099030;28;20048;-59
2021/10/10 02:05:27;;;;;;;24.40;20.45;;;5.30;99.90;;;;;;5104066;28;20063;-59
2021/10/10 02:07:54;;;;;;;23.92;20.25;;;5.30;99.90;;;;;;5103429;28;20130;-59
2021/10/10 02:10:20;;;;;;;25.40;20.15;;;5.30;99.90;;;;;;5098345;28;20507;-59
2021/10/10 02:12:46;;;;;;;27.50;21.02;;;5.30;99.90;;;;;;5104474;28;20058;-59
2021/10/10 02:15:16;;;;;;;24.88;20.60;;;5.30;99.90;;;;;;5103259;28;20134;-59
2021/10/10 02:17:43;;;;;;;25.33;19.48;;;5.30;99.90;;;;;;5084579;28;20427;-58
2021/10/10 02:20:11;;;;;;;24.02;18.45;;;5.20;99.90;;;;;;5102355;28;20054;-60
2021/10/10 02:22:41;;;;;;;23.15;20.00;;;5.20;99.90;;;;;;5104599;28;20047;-59
2021/10/10 02:25:10;;;;;;;23.00;18.35;;;5.20;99.90;;;;;;5099206;28;20126;-59
2021/10/10 02:27:39;;;;;;;21.40;18.35;;;5.10;99.90;;;;;;5099691;28;20055;-58
2021/10/10 02:30:05;;;;;;;22.48;19.02;;;5.10;99.90;;;;;;5100745;28;20135;-59
2021/10/10 02:32:32;;;;;;;24.13;19.08;;;5.10;99.90;;;;;;5099474;28;20052;-59
2021/10/10 02:34:58;;;;;;;23.30;19.23;;;5.10;99.90;;;;;;5100641;28;20081;-59
2021/10/10 02:37:27;;;;;;;21.50;19.20;;;5.00;99.90;;;;;;5103470;28;20052;-60
2021/10/10 02:39:56;;;;;;;26.07;19.77;;;5.00;99.90;;;;;;5100731;28;20043;-59
2021/10/10 02:42:27;;;;;;;22.27;18.88;;;5.00;99.90;;;;;;5084020;28;20055;-59
2021/10/10 02:44:54;;;;;;;20.55;17.05;;;5.00;99.90;;;;;;5099372;28;20064;-59
2021/10/10 02:47:20;;;;;;;24.55;19.42;;;5.00;99.90;;;;;;5104925;28;20116;-59
2021/10/10 02:49:49;;;;;;;25.20;20.10;;;4.90;99.90;;;;;;5086073;28;20055;-60
2021/10/10 02:52:16;;;;;;;25.98;21.20;;;4.90;99.90;;;;;;5102335;28;20087;-60
2021/10/10 02:54:43;;;;;;;23.20;19.02;;;4.90;99.90;;;;;;5103039;28;20052;-59
2021/10/10 02:57:11;;;;;;;27.23;20.83;;;4.90;99.90;;;;;;5080006;28;20525;-59
2021/10/10 02:59:37;;;;;;;28.13;20.05;;;4.90;99.90;;;;;;5089835;28;20424;-59
2021/10/10 03:02:03;;;;;;;22.65;19.67;;;4.80;99.90;;;;;;5104299;28;20071;-60
2021/10/10 03:04:33;;;;;;;23.02;19.38;;;4.80;99.90;;;;;;5084345;28;20515;-58
2021/10/10 03:06:59;;;;;;;23.88;19.88;;;4.80;99.90;;;;;;5109115;28;20086;-60
2021/10/10 03:09:26;;;;;;;24.63;19.75;;;4.80;99.90;;;;;;5106474;28;20108;-60
2021/10/10 03:11:53;;;;;;;25.63;19.85;;;4.80;99.90;;;;;;5103718;28;20108;-59
2021/10/10 03:14:21;;;;;;;25.52;20.75;;;4.80;99.90;;;;;;5108154;28;20055;-60
2021/10/10 03:16:53;;;;;;;23.02;19.70;;;4.80;99.90;;;;;;5108556;28;20583;-59
2021/10/10 03:19:20;;;;;;;27.67;20.73;;;4.70;99.90;;;;;;5108828;28;20096;-58
2021/10/10 03:21:46;;;;;;;29.98;21.33;;;4.80;99.90;;;;;;5108775;28;20096;-59
2021/10/10 03:24:13;;;;;;;26.52;20.77;;;4.70;99.90;;;;;;5105950;28;20479;-60
2021/10/10 03:26:41;;;;;;;26.02;21.63;;;4.70;99.90;;;;;;5112080;28;20055;-60
2021/10/10 03:29:07;;;;;;;23.48;20.00;;;4.70;99.90;;;;;;5107840;28;20083;-58
2021/10/10 03:31:35;;;;;;;27.05;19.83;;;4.70;99.90;;;;;;5105125;28;20048;-59
2021/10/10 03:34:02;;;;;;;24.25;19.70;;;4.70;99.90;;;;;;5086189;28;20051;-59
2021/10/10 03:36:32;;;;;;;23.98;21.10;;;4.70;99.90;;;;;;5107126;28;20526;-59
2021/10/10 03:39:01;;;;;;;24.40;19.95;;;4.70;99.90;;;;;;5104723;28;20456;-59
2021/10/10 03:41:31;;;;;;;24.67;20.67;;;4.70;99.90;;;;;;5106264;28;20055;-59
2021/10/10 03:44:02;;;;;;;26.40;20.83;;;4.70;99.90;;;;;;5101197;28;20122;-58
2021/10/10 03:46:28;;;;;;;27.15;21.40;;;4.70;99.90;;;;;;5100988;28;20054;-58
2021/10/10 03:48:59;;;;;;;23.15;20.23;;;4.70;99.90;;;;;;5085025;28;20058;-59
2021/10/10 03:51:28;;;;;;;24.83;19.98;;;4.60;99.90;;;;;;5099603;28;20048;-60
2021/10/10 03:56:27;;;;;;;25.75;18.83;;;4.60;99.90;;;;;;5098505;28;20082;-59
2021/10/10 03:58:53;;;;;;;24.77;21.25;;;4.60;99.90;;;;;;5106053;28;20092;-58
2021/10/10 04:01:21;;;;;;;27.27;19.58;;;4.60;99.90;;;;;;5103049;28;20567;-58
2021/10/10 04:03:47;;;;;;;24.42;20.02;;;4.60;99.90;;;;;;5104719;28;20051;-59
2021/10/10 04:06:13;;;;;;;22.75;19.70;;;4.50;99.90;;;;;;5104942;28;20131;-59
2021/10/10 04:08:50;;;;;;;21.38;18.42;;;4.50;99.90;;;;;;5087650;28;20059;-59
2021/10/10 04:11:19;;;;;;;24.40;19.33;;;4.50;99.90;;;;;;5103802;28;20481;-60
2021/10/10 04:13:46;;;;;;;23.95;17.13;;;4.50;99.90;;;;;;5107612;28;20055;-60
2021/10/10 04:16:14;;;;;;;20.73;17.85;;;4.40;99.90;;;;;;5105299;28;20044;-59
2021/10/10 04:18:43;;;;;;;21.33;16.58;;;4.40;99.90;;;;;;5085641;28;20090;-60
2021/10/10 04:21:11;;;;;;;20.10;17.50;;;4.40;99.90;;;;;;5108061;28;20126;-58
2021/10/10 04:23:37;;;;;;;22.45;17.48;;;4.40;99.90;;;;;;5102355;28;20832;-58
2021/10/10 04:26:04;;;;;;;20.42;16.95;;;4.40;99.90;;;;;;5084118;28;20215;-59
2021/10/10 04:28:30;;;;;;;22.10;17.17;;;4.30;99.90;;;;;;5102831;28;20051;-60
2021/10/10 04:30:56;;;;;;;18.77;16.58;;;4.30;99.90;;;;;;5086721;28;20515;-59
2021/10/10 04:33:28;;;;;;;22.23;17.20;;;4.30;99.90;;;;;;5106108;28;20092;-60
2021/10/10 04:35:54;;;;;;;19.00;17.00;;;4.30;99.90;;;;;;5101193;28;20091;-60
2021/10/10 04:38:20;;;;;;;18.52;15.88;;;4.30;99.90;;;;;;5106321;28;20050;-61
2021/10/10 04:40:46;;;;;;;21.08;18.08;;;4.20;99.90;;;;;;5106087;27;20655;-59
2021/10/10 04:43:12;;;;;;;18.48;16.20;;;4.20;99.90;;;;;;5105883;28;20080;-59
2021/10/10 04:45:42;;;;;;;19.02;16.92;;;4.10;99.90;;;;;;5102954;28;20043;-60
2021/10/10 04:48:11;;;;;;;19.20;16.10;;;4.10;99.90;;;;;;5104672;28;20142;-59
2021/10/10 04:50:37;;;;;;;20.30;16.15;;;4.10;99.90;;;;;;5104420;28;20066;-59
2021/10/10 04:53:03;;;;;;;19.65;16.13;;;4.10;99.90;;;;;;5103837;28;20048;-59
2021/10/10 04:55:29;;;;;;;21.00;16.85;;;4.10;99.90;;;;;;5101210;28;20052;-58
2021/10/10 04:57:56;;;;;;;22.20;17.98;;;4.10;99.90;;;;;;5107128;28;20427;-61
2021/10/10 05:00:22;;;;;;;23.00;18.58;;;4.10;99.90;;;;;;5087137;28;20499;-59
2021/10/10 05:02:53;;;;;;;21.05;17.02;;;4.10;99.90;;;;;;5101880;28;20059;-61
2021/10/10 05:05:24;;;;;;;21.92;18.35;;;4.00;99.90;;;;;;5103395;28;20085;-59
2021/10/10 05:07:53;;;;;;;21.92;18.38;;;4.00;99.90;;;;;;5085466;28;20184;-60
2021/10/10 05:10:22;;;;;;;24.00;21.13;;;4.00;99.90;;;;;;5103253;28;20514;-61
2021/10/10 05:12:51;;;;;;;23.42;20.63;;;4.00;99.90;;;;;;5106982;28;20051;-61
2021/10/10 05:15:19;;;;;;;22.52;19.70;;;4.00;99.90;;;;;;5103539;28;20086;-59
2021/10/10 05:17:45;;;;;;;23.83;18.88;;;4.00;99.90;;;;;;5103782;28;20060;-60
2021/10/10 05:20:14;;;;;;;20.83;17.67;;;4.00;99.90;;;;;;5104475;28;20119;-62
2021/10/10 05:22:43;;;;;;;23.27;18.75;;;3.90;99.90;;;;;;5107062;28;20044;-60
2021/10/10 05:25:12;;;;;;;23.90;19.02;;;3.90;99.90;;;;;;5105988;28;20060;-60
2021/10/10 05:27:38;;;;;;;24.08;19.15;;;3.90;99.90;;;;;;5086079;28;20044;-60
2021/10/10 05:30:05;;;;;;;24.00;19.73;;;3.80;99.90;;;;;;5081207;28;20069;-60
2021/10/10 05:32:34;;;;;;;25.23;20.45;;;3.90;99.90;;;;;;5101259;28;20041;-60
2021/10/10 05:35:01;;;;;;;22.48;19.52;;;3.90;99.90;;;;;;5104752;28;20052;-60
2021/10/10 05:37:27;;;;;;;24.73;19.90;;;3.90;99.90;;;;;;5101546;28;20060;-59
2021/10/10 05:39:56;;;;;;;21.80;18.63;;;3.90;99.90;;;;;;5105091;28;20595;-59
2021/10/10 05:42:25;;;;;;;23.98;21.10;;;3.90;99.90;;;;;;5101143;28;20055;-60
2021/10/10 05:44:54;;;;;;;25.10;20.95;;;3.80;99.90;;;;;;5104324;28;20087;-61
2021/10/10 05:47:23;;;;;;;25.60;22.08;;;3.90;99.90;;;;;;5104385;28;20071;-60
2021/10/10 05:49:52;;;;;;;24.67;22.08;;;3.90;99.90;;;;;;5102894;28;20047;-60
2021/10/10 05:52:23;;;;;;;26.08;20.67;;;3.90;99.90;;;;;;5104405;28;20512;-60
2021/10/10 05:54:49;;;;;;;29.10;20.98;;;3.90;99.90;;;;;;5099903;28;20100;-60
2021/10/10 05:57:21;;;;;;;23.33;18.90;;;3.90;99.90;;;;;;5101487;28;20059;-60
2021/10/10 05:59:48;;;;;;;23.45;20.92;;;3.90;99.90;;;;;;5102644;28;20056;-60
2021/10/10 06:02:16;;;;;;;27.35;21.27;;;3.90;99.90;;;;;;5100343;28;20079;-59
2021/10/10 06:04:42;;;;;;;29.73;21.25;;;4.00;99.90;;;;;;5102201;28;20475;-60
2021/10/10 06:07:08;;;;;;;26.38;21.30;;;4.00;99.90;;;;;;5096881;28;20674;-60
2021/10/10 06:09:34;;;;;;;24.58;20.05;;;4.00;99.90;;;;;;5083532;28;20044;-61
2021/10/10 06:12:04;;;;;;;27.65;22.92;;;4.00;99.90;;;;;;5079601;28;20126;-60
2021/10/10 06:14:30;;;;;;;24.95;21.08;;;4.10;99.90;;;;;;5080709;28;20052;-59
2021/10/10 06:16:56;;;;;;;24.98;22.15;;;4.10;99.90;;;;;;5079921;28;20056;-60
2021/10/10 06:19:24;;;;;;;26.00;20.88;;;4.10;99.90;;;;;;5080740;28;20635;-60
2021/10/10 06:21:53;;;;;;;24.98;20.85;;;4.20;99.90;;;;;;5083933;28;20062;-60
2021/10/10 06:24:19;;;;;;;24.40;19.35;;;4.20;99.90;;;;;;5084897;28;20052;-59
2021/10/10 06:26:45;;;;;;;24.30;20.02;;;4.20;99.90;;;;;;5086650;28;20048;-58
2021/10/10 06:29:13;;;;;;;24.98;20.48;;;4.30;99.90;;;;;;5079768;28;20152;-59
2021/10/10 06:31:42;;;;;;;25.48;21.13;;;4.50;99.90;;;;;;5086898;28;20051;-58
2021/10/10 06:34:08;;;;;;;28.02;21.65;;;4.50;99.90;;;;;;5079373;28;20774;-59
2021/10/10 06:36:37;;;;;;;24.02;20.95;;;4.60;99.90;;;;;;5087685;28;20055;-58
2021/10/10 06:39:06;;;;;;;23.45;20.73;;;4.70;99.90;;;;;;5087547;28;20048;-59
2021/10/10 06:41:35;;;;;;;22.92;18.35;;;4.70;99.90;;;;;;5087941;28;20131;-58
2021/10/10 06:44:03;;;;;;;23.55;20.75;;;5.00;99.90;;;;;;5087045;28;20059;-59
2021/10/10 06:46:29;;;;;;;24.70;20.55;;;5.00;99.90;;;;;;5086782;28;20091;-59
2021/10/10 06:48:58;;;;;;;22.75;19.33;;;5.20;99.90;;;;;;5079973;28;20464;-59
2021/10/10 06:51:28;;;;;;;23.42;19.98;;;5.30;99.90;;;;;;5085404;28;20094;-60
2021/10/10 06:53:56;;;;;;;23.45;20.30;;;5.60;99.90;;;;;;5085794;28;20647;-59
2021/10/10 06:56:26;;;;;;;23.95;18.65;;;5.80;99.90;;;;;;5086015;28;20105;-58
2021/10/10 06:58:57;;;;;;;26.35;20.38;;;6.10;99.90;;;;;;5086701;28;20055;-59
2021/10/10 07:01:23;;;;;;;23.07;20.57;;;6.30;99.90;;;;;;5076103;28;20051;-58
2021/10/10 07:03:49;;;;;;;26.75;21.45;;;6.40;99.90;;;;;;5086571;28;20141;-58
2021/10/10 07:06:18;;;;;;;29.92;22.95;;;6.60;99.90;;;;;;5092384;28;20060;-58
2021/10/10 07:08:44;;;;;;;27.45;21.83;;;6.50;99.90;;;;;;5102484;28;20091;-57
2021/10/10 07:11:13;;;;;;;27.15;22.13;;;6.50;99.90;;;;;;5100061;28;20063;-57
2021/10/10 07:13:41;;;;;;;26.17;21.38;;;6.60;99.90;;;;;;5098489;28;20444;-56
2021/10/10 07:16:08;;;;;;;31.85;22.38;;;6.70;99.90;;;;;;5102989;28;20083;-57
2021/10/10 07:18:51;;;;;;;28.13;20.38;;;6.80;99.90;;;;;;5085162;28;20055;-55
2021/10/10 07:21:28;;;;;;;24.55;20.23;;;6.90;99.90;;;;;;5103226;28;20062;-56
2021/10/10 07:26:45;;;;;;;20.50;18.15;;;7.80;99.90;;;;;;5094998;28;20051;-56
2021/10/10 07:29:14;;;;;;;20.77;18.58;;;8.20;99.90;;;;;;5105461;28;20055;-55
2021/10/10 07:31:43;;;;;;;21.15;18.88;;;8.40;99.90;;;;;;5105313;28;20062;-55
2021/10/10 07:34:09;;;;;;;21.60;17.58;;;8.50;99.90;;;;;;5103137;28;20550;-56
2021/10/10 07:36:41;;;;;;;23.23;18.50;;;8.50;99.90;;;;;;5082338;28;20062;-56
2021/10/10 07:39:07;;;;;;;22.95;18.83;;;8.80;99.90;;;;;;5103834;28;20304;-54
2021/10/10 07:41:40;;;;;;;24.45;19.27;;;8.80;99.90;;;;;;5100783;28;20048;-57
2021/10/10 07:44:12;;;;;;;19.25;17.25;;;8.90;99.90;;;;;;5084859;28;20067;-56
2021/10/10 07:46:42;;;;;;;23.00;20.58;;;8.70;99.90;;;;;;5062955;28;20066;-56
2021/10/10 07:49:15;;;;;;;23.33;19.73;;;8.70;99.90;;;;;;5085705;28;20051;-56
2021/10/10 07:51:44;;;;;;;23.45;20.95;;;8.60;99.90;;;;;;5108541;28;20105;-56
2021/10/10 07:54:10;;;;;;;23.40;19.60;;;8.80;99.90;;;;;;5108069;28;20101;-54
2021/10/10 07:56:38;;;;;;;23.55;20.25;;;9.00;99.90;;;;;;5107124;28;20052;-56
2021/10/10 07:59:07;;;;;;;26.33;21.52;;;9.20;99.90;;;;;;5109892;28;20495;-57
2021/10/10 08:01:36;;;;;;;22.17;19.77;;;9.50;99.90;;;;;;5107589;28;20135;-54
2021/10/10 08:04:04;;;;;;;22.15;19.70;;;10.00;99.90;;;;;;5109892;28;20090;-56
2021/10/10 08:06:33;;;;;;;23.45;19.88;;;10.50;99.90;;;;;;5090548;28;20039;-55
2021/10/10 08:08:59;;;;;;;23.15;20.77;;;10.80;99.90;;;;;;5108917;28;20056;-56
2021/10/10 08:11:26;;;;;;;22.85;20.48;;;11.00;99.90;;;;;;5090552;28;20187;-54
2021/10/10 08:13:52;;;;;;;22.90;20.55;;;10.90;99.90;;;;;;5109343;28;20062;-55
2021/10/10 08:16:18;;;;;;;22.92;20.33;;;11.00;99.90;;;;;;5107088;28;20048;-55
2021/10/10 08:18:50;;;;;;;22.85;19.95;;;11.10;99.90;;;;;;5104792;28;20083;-56
2021/10/10 08:21:19;;;;;;;23.25;20.15;;;11.10;99.90;;;;;;5110214;28;20845;-57
2021/10/10 08:23:45;;;;;;;22.38;19.88;;;11.40;99.90;;;;;;5110578;28;20080;-56
2021/10/10 08:26:11;;;;;;;21.58;18.67;;;11.70;99.90;;;;;;5110687;28;20052;-56
2021/10/10 08:28:38;;;;;;;24.93;20.47;;;12.00;99.90;;;;;;5110013;28;20495;-56
2021/10/10 08:31:04;;;;;;;22.80;20.17;;;12.10;99.90;;;;;;5109459;28;20048;-56
2021/10/10 08:33:33;;;;;;;22.98;20.65;;;12.40;99.90;;;;;;5109862;28;20048;-56
2021/10/10 08:36:03;;;;;;;25.02;20.48;;;12.50;99.90;;;;;;5110249;28;20179;-55
2021/10/10 08:38:32;;;;;;;22.95;20.70;;;12.40;99.90;;;;;;5103923;28;20070;-52
2021/10/10 08:40:58;;;;;;;22.73;20.38;;;12.10;99.90;;;;;;5107654;28;20066;-56
2021/10/10 08:43:31;;;;;;;24.80;22.15;;;12.10;99.90;;;;;;5106884;28;20047;-54
2021/10/10 08:46:02;;;;;;;23.70;21.20;;;12.40;99.90;;;;;;5088194;28;20062;-52
2021/10/10 08:48:28;;;;;;;23.95;21.50;;;12.70;99.90;;;;;;5102711;28;20048;-55
2021/10/10 08:50:56;;;;;;;23.38;20.60;;;12.90;99.90;;;;;;5089934;28;20056;-56
2021/10/10 08:53:23;;;;;;;23.60;21.20;;;13.10;99.90;;;;;;5090402;28;20051;-57
2021/10/10 08:55:51;;;;;;;25.48;22.05;;;13.20;99.90;;;;;;5085156;28;20063;-55
2021/10/10 08:58:20;;;;;;;23.77;21.30;;;13.60;99.90;;;;;;5104827;28;20087;-56
2021/10/10 09:00:49;;;;;;;24.08;21.58;;;13.80;99.90;;;;;;5090705;28;20130;-56
2021/10/10 09:03:16;;;;;;;24.52;21.98;;;13.80;99.90;;;;;;5108901;28;20047;-56
2021/10/10 09:05:43;;;;;;;28.60;23.20;;;13.60;99.90;;;;;;5108979;28;20540;-56
2021/10/10 09:08:12;;;;;;;23.90;21.33;;;13.50;99.90;;;;;;5098436;28;20088;-54
2021/10/10 09:10:41;;;;;;;24.08;21.67;;;13.20;99.90;;;;;;5102657;28;20097;-56
2021/10/10 09:13:13;;;;;;;24.08;21.35;;;13.20;99.90;;;;;;5101698;28;20058;-55
2021/10/10 09:15:41;;;;;;;25.10;22.52;;;12.90;99.90;;;;;;5102486;28;20039;-56
2021/10/10 09:18:10;;;;;;;25.63;22.90;;;12.90;99.90;;;;;;5083083;28;20538;-56
2021/10/10 09:20:44;;;;;;;27.75;23.83;;;12.80;99.90;;;;;;5102671;28;20981;-55
2021/10/10 09:23:33;;;;;;;27.98;24.98;;;12.70;99.90;;;;;;5103870;28;20047;-55
2021/10/10 09:26:02;;;;;;;26.30;23.52;;;12.80;99.90;;;;;;5101485;28;20063;-54
2021/10/10 09:28:33;;;;;;;26.20;23.42;;;12.80;99.90;;;;;;5085093;28;20039;-53
2021/10/10 09:31:04;;;;;;;29.20;24.13;;;12.90;99.90;;;;;;5102361;28;20055;-56
2021/10/10 09:33:50;;;;;;;28.98;25.00;;;13.10;99.90;;;;;;5106806;28;20122;-56
2021/10/10 09:36:24;;;;;;;27.35;24.45;;;13.00;99.90;;;;;;5103704;28;20158;-56
2021/10/10 09:39:08;;;;;;;27.73;24.45;;;13.10;99.90;;;;;;5099557;28;20055;-55
2021/10/10 09:41:42;;;;;;;27.17;24.35;;;13.50;99.90;;;;;;5100319;28;20055;-55
2021/10/10 09:44:17;;;;;;;28.08;24.52;;;14.10;99.90;;;;;;5098638;27;20520;-55
2021/10/10 09:46:47;;;;;;;25.98;23.45;;;14.60;99.90;;;;;;5098559;28;20052;-54
2021/10/10 09:49:30;;;;;;;26.70;23.90;;;14.50;99.90;;;;;;5100464;28;20055;-54
2021/10/10 09:52:08;;;;;;;27.02;24.38;;;14.70;99.90;;;;;;5101180;28;20320;-57
2021/10/10 09:54:58;;;;;;;26.02;23.50;;;15.20;99.90;;;;;;5098797;28;20784;-57
2021/10/10 09:57:27;;;;;;;25.47;22.87;;;16.10;99.90;;;;;;5101558;28;20054;-55
2021/10/10 09:59:53;;;;;;;26.13;21.88;;;16.90;99.90;;;;;;5093635;28;20047;-52
2021/10/10 10:02:40;;;;;;;23.85;21.38;;;17.60;99.90;;;;;;5102722;28;20122;-51
2021/10/10 10:05:07;;;;;;;25.67;23.08;;;18.20;99.90;;;;;;5096290;28;20051;-53
2021/10/10 10:07:34;;;;;;;25.77;23.20;;;18.40;99.90;;;;;;5100660;28;20499;-52
2021/10/10 10:10:00;;;;;;;24.33;21.83;;;18.90;99.80;;;;;;5082835;28;20048;-56
2021/10/10 10:12:27;;;;;;;23.90;21.35;;;19.40;99.10;;;;;;5098274;28;20772;-57
2021/10/10 10:15:00;;;;;;;24.23;21.48;;;19.70;94.70;;;;;;5099495;28;20043;-57
2021/10/10 10:17:32;;;;;;;24.38;21.98;;;20.00;90.70;;;;;;5083046;28;20067;-58
2021/10/10 10:20:02;;;;;;;24.45;21.92;;;20.40;80.60;;;;;;5100393;28;20452;-55
2021/10/10 10:22:31;;;;;;;24.00;21.65;;;20.90;78.70;;;;;;5102835;28;20061;-56
2021/10/10 10:24:58;;;;;;;24.38;21.75;;;20.90;74.50;;;;;;5097814;28;20248;-58
2021/10/10 10:27:24;;;;;;;24.70;22.08;;;20.90;77.70;;;;;;5099205;28;20039;-58
2021/10/10 10:29:56;;;;;;;23.75;21.55;;;21.30;74.70;;;;;;5100482;28;20055;-55
2021/10/10 10:32:24;;;;;;;24.60;22.00;;;21.10;68.50;;;;;;5099457;28;20132;-54
2021/10/10 10:35:11;;;;;;;24.27;21.85;;;21.00;71.50;;;;;;5095927;28;20134;-55
2021/10/10 10:37:43;;;;;;;26.65;23.83;;;21.30;67.80;;;;;;5098691;28;20057;-55
2021/10/10 10:40:18;;;;;;;24.60;22.10;;;21.00;69.60;;;;;;5079769;28;20050;-55
2021/10/10 10:42:49;;;;;;;23.73;21.30;;;21.60;68.00;;;;;;5099869;28;20126;-54
2021/10/10 10:45:35;;;;;;;24.27;21.73;;;21.90;66.00;;;;;;5101939;28;20055;-55
2021/10/10 10:48:07;;;;;;;24.00;21.70;;;22.10;62.20;;;;;;5080813;28;20073;-56
2021/10/10 10:50:42;;;;;;;23.92;21.70;;;21.90;63.40;;;;;;5101648;28;20052;-58
2021/10/10 10:53:19;;;;;;;23.48;21.17;;;22.20;64.10;;;;;;5083620;28;20149;-53
2021/10/10 10:55:54;;;;;;;24.42;21.90;;;22.20;60.60;;;;;;5100000;28;20090;-55
2021/10/10 10:58:21;;;;;;;23.98;21.58;;;22.50;58.60;;;;;;5098638;28;20751;-55
2021/10/10 11:00:49;;;;;;;24.25;21.90;;;22.30;62.30;;;;;;5099482;28;20463;-53
2021/10/10 11:03:25;;;;;;;23.45;21.17;;;22.70;61.30;;;;;;5097686;28;20055;-58
2021/10/10 11:06:00;;;;;;;23.52;21.05;;;23.10;59.60;;;;;;5100983;28;20044;-56
2021/10/10 11:08:29;;;;;;;24.30;21.80;;;23.00;58.10;;;;;;5097780;28;20563;-57
2021/10/10 11:11:04;;;;;;;23.42;21.17;;;23.00;58.60;;;;;;5098954;28;20055;-58
2021/10/10 11:13:34;;;;;;;26.75;22.27;;;23.00;55.90;;;;;;5098281;28;20052;-56
2021/10/10 11:16:28;;;;;;;23.20;20.95;;;23.40;56.20;;;;;;5100891;28;20066;-54
2021/10/10 11:19:00;;;;;;;22.98;20.38;;;23.10;55.50;;;;;;5083012;28;20529;-52
2021/10/10 11:21:36;;;;;;;23.58;21.25;;;23.20;56.70;;;;;;5105934;28;20053;-52
2021/10/10 11:24:04;;;;;;;24.00;21.50;;;23.20;57.10;;;;;;5101354;28;20052;-52
2021/10/10 11:26:38;;;;;;;24.25;21.38;;;23.90;55.90;;;;;;5107685;28;20044;-51
2021/10/10 11:29:12;;;;;;;24.40;21.73;;;24.00;54.20;;;;;;5086409;28;20036;-51
2021/10/10 11:31:40;;;;;;;22.50;20.50;;;23.60;54.80;;;;;;5106407;28;20108;-52
2021/10/10 11:34:08;;;;;;;23.70;21.33;;;24.20;56.10;;;;;;5102612;28;20568;-48
2021/10/10 11:36:40;;;;;;;25.20;22.65;;;24.20;54.80;;;;;;5111084;28;20044;-48
2021/10/10 11:39:14;;;;;;;25.08;22.58;;;23.50;54.50;;;;;;5109760;28;20091;-48
2021/10/10 11:42:01;;;;;;;24.67;22.35;;;23.60;55.20;;;;;;5090418;28;20051;-50
2021/10/10 11:44:46;;;;;;;25.05;22.65;;;23.80;55.60;;;;;;5031423;28;20538;-49
2021/10/10 11:47:26;;;;;;;26.40;23.58;;;23.40;54.20;;;;;;5035262;28;20142;-52
2021/10/10 11:50:03;;;;;;;26.38;23.27;;;23.50;54.40;;;;;;5033680;28;20220;-57
2021/10/10 11:52:38;;;;;;;26.63;24.02;;;23.80;54.80;;;;;;5028124;28;20084;-58
2021/10/10 11:55:20;;;;;;;28.13;24.17;;;23.90;54.70;;;;;;5031726;28;20598;-57
2021/10/10 11:57:54;;;;;;;26.27;23.48;;;24.10;54.10;;;;;;5035308;28;20588;-57
2021/10/10 12:00:24;;;;;;;27.05;24.25;;;24.30;52.30;;;;;;5037245;28;20053;-58
2021/10/10 12:02:50;;;;;;;28.95;25.67;;;24.40;53.60;;;;;;5033818;28;20497;-58
2021/10/10 12:05:24;;;;;;;29.70;25.30;;;24.30;52.70;;;;;;5030969;28;20065;-58
2021/10/10 12:07:53;;;;;;;27.48;24.65;;;23.80;52.00;;;;;;5036884;28;20055;-58
2021/10/10 12:10:23;;;;;;;27.27;24.58;;;23.30;53.30;;;;;;5036945;28;20115;-58
2021/10/10 12:12:53;;;;;;;30.30;25.05;;;23.20;54.00;;;;;;5039355;28;20717;-58
2021/10/10 12:15:23;;;;;;;30.02;26.77;;;23.50;54.60;;;;;;5030049;28;20063;-58
2021/10/10 12:17:54;;;;;;;30.48;26.48;;;23.90;53.80;;;;;;5034070;28;20064;-58
2021/10/10 12:20:30;;;;;;;29.33;26.33;;;24.10;53.70;;;;;;5040766;28;20579;-58
2021/10/10 12:23:02;;;;;;;27.65;24.80;;;24.60;51.90;;;;;;5105058;28;20180;-58
2021/10/10 12:25:44;;;;;;;32.22;29.13;;;24.00;52.90;;;;;;5103565;28;20047;-58
2021/10/10 12:28:14;;;;;;;31.85;28.75;;;24.80;50.90;;;;;;5105807;28;20043;-57
2021/10/10 12:30:51;;;;;;;29.13;25.83;;;24.60;51.00;;;;;;5104352;28;20108;-57
2021/10/10 12:33:28;;;;;;;27.00;24.20;;;24.70;50.80;;;;;;5107929;28;20055;-57
2021/10/10 12:36:14;;;;;;;27.75;24.83;;;24.90;50.70;;;;;;5104720;28;20055;-57
2021/10/10 12:38:44;;;;;;;27.08;23.70;;;25.10;51.20;;;;;;5104879;28;20503;-57
2021/10/10 12:41:19;;;;;;;28.02;25.27;;;25.50;50.80;;;;;;5089223;28;20047;-58
2021/10/10 12:44:03;;;;;;;27.92;25.10;;;24.50;50.70;;;;;;5108412;28;20454;-57
2021/10/10 12:46:45;;;;;;;31.95;28.42;;;24.90;51.00;;;;;;5105006;28;20484;-57
2021/10/10 12:49:11;;;;;;;28.65;25.77;;;24.60;51.90;;;;;;5107540;28;20047;-57
2021/10/10 12:51:48;;;;;;;26.92;24.33;;;24.80;52.20;;;;;;5105307;28;20621;-57